Avalon, Wisconsin
Current Conditions -  °F | °C
As of 9:15 PM on Monday 26 Jan 2015 (Local Time) from KJVL Reporting Station
Haze Haze  
Wind Chill: 27°   Ceiling: 500
Heat Index: 27°   Visibility: 2.5mi
Dew Point: 27°   Wind: 0mph
Humidity: 100%   Direction: NA
Pressure: 29.88"   Gusts: NA
Location:  42.63°N, 88.87°W
Report Text: KJVL 270315Z AUTO 00000KT 2 1/2SM BR OVC005 M03/M03 A2988 RMK AO2
Loading
Personal Weather Stations






























Interactive Weather Map New forecast layout! Learn more

10-Day Weather Forecast

Advertisements
Track Severe Weather on mobile